sensor_id;sensor_type;location;lat;lon;timestamp;P1;durP1;ratioP1;P2;durP2;ratioP2
70388;SDS011;58659;49.050;8.530;2022-07-29T02:14:21;6.10;;;2.03;;
70388;SDS011;58659;49.050;8.530;2022-07-29T02:16:48;2.77;;;1.77;;
70388;SDS011;58659;49.050;8.530;2022-07-29T02:19:17;4.23;;;2.00;;
70388;SDS011;58659;49.050;8.530;2022-07-29T02:21:44;3.03;;;1.90;;
70388;SDS011;58659;49.050;8.530;2022-07-29T02:24:11;4.97;;;2.13;;
70388;SDS011;58659;49.050;8.530;2022-07-29T02:26:37;3.13;;;2.23;;
70388;SDS011;58659;49.050;8.530;2022-07-29T02:29:05;2.90;;;1.93;;
70388;SDS011;58659;49.050;8.530;2022-07-29T02:31:33;3.33;;;1.97;;
70388;SDS011;58659;49.050;8.530;2022-07-29T02:34:01;4.37;;;2.37;;
70388;SDS011;58659;49.050;8.530;2022-07-29T02:36:28;2.80;;;2.07;;
70388;SDS011;58659;49.050;8.530;2022-07-29T02:38:55;5.43;;;2.13;;
70388;SDS011;58659;49.050;8.530;2022-07-29T02:43:55;4.67;;;2.17;;
70388;SDS011;58659;49.050;8.530;2022-07-29T02:46:27;1.80;;;1.40;;
70388;SDS011;58659;49.050;8.530;2022-07-29T02:48:59;3.43;;;2.00;;
70388;SDS011;58659;49.050;8.530;2022-07-29T02:51:40;3.67;;;2.03;;
70388;SDS011;58659;49.050;8.530;2022-07-29T02:54:08;2.23;;;1.53;;
70388;SDS011;58659;49.050;8.530;2022-07-29T02:56:36;4.83;;;1.97;;
70388;SDS011;58659;49.050;8.530;2022-07-29T02:59:06;5.03;;;1.93;;
70388;SDS011;58659;49.050;8.530;2022-07-29T03:01:35;1.97;;;1.37;;
70388;SDS011;58659;49.050;8.530;2022-07-29T03:04:05;2.77;;;1.80;;
70388;SDS011;58659;49.050;8.530;2022-07-29T03:06:31;2.73;;;1.70;;
70388;SDS011;58659;49.050;8.530;2022-07-29T03:09:07;3.13;;;2.10;;
70388;SDS011;58659;49.050;8.530;2022-07-29T03:11:33;2.23;;;1.70;;
70388;SDS011;58659;49.050;8.530;2022-07-29T03:13:59;4.63;;;1.90;;
70388;SDS011;58659;49.050;8.530;2022-07-29T03:16:26;3.43;;;1.70;;
70388;SDS011;58659;49.050;8.530;2022-07-29T03:18:52;2.50;;;1.57;;
70388;SDS011;58659;49.050;8.530;2022-07-29T03:21:18;4.73;;;2.03;;
70388;SDS011;58659;49.050;8.530;2022-07-29T07:09:57;4.07;;;2.37;;
70388;SDS011;58659;49.050;8.530;2022-07-29T07:12:23;3.75;;;2.30;;
70388;SDS011;58659;49.050;8.530;2022-07-29T07:14:48;2.77;;;1.93;;
70388;SDS011;58659;49.050;8.530;2022-07-29T19:45:16;1.33;;;0.90;;
70388;SDS011;58659;49.050;8.530;2022-07-29T19:50:14;1.47;;;0.90;;
70388;SDS011;58659;49.050;8.530;2022-07-29T19:52:40;1.90;;;1.20;;
70388;SDS011;58659;49.050;8.530;2022-07-29T19:55:06;2.10;;;0.80;;
70388;SDS011;58659;49.050;8.530;2022-07-29T19:57:32;3.13;;;0.90;;
70388;SDS011;58659;49.050;8.530;2022-07-29T19:59:57;2.87;;;1.00;;
70388;SDS011;58659;49.050;8.530;2022-07-29T20:02:23;2.90;;;1.20;;
70388;SDS011;58659;49.050;8.530;2022-07-29T20:04:48;2.97;;;0.77;;
70388;SDS011;58659;49.050;8.530;2022-07-29T20:29:03;2.37;;;1.10;;
70388;SDS011;58659;49.050;8.530;2022-07-29T20:31:29;1.57;;;1.00;;
70388;SDS011;58659;49.050;8.530;2022-07-29T20:33:59;2.30;;;0.90;;
70388;SDS011;58659;49.050;8.530;2022-07-29T20:36:24;3.63;;;1.10;;
70388;SDS011;58659;49.050;8.530;2022-07-29T20:38:50;2.67;;;0.93;;
70388;SDS011;58659;49.050;8.530;2022-07-29T20:41:15;3.03;;;0.90;;
70388;SDS011;58659;49.050;8.530;2022-07-29T20:43:41;1.33;;;1.03;;
70388;SDS011;58659;49.050;8.530;2022-07-29T22:01:41;2.60;;;1.43;;
70388;SDS011;58659;49.050;8.530;2022-07-29T22:04:06;2.20;;;1.20;;
70388;SDS011;58659;49.050;8.530;2022-07-29T22:06:32;1.97;;;1.20;;
70388;SDS011;58659;49.050;8.530;2022-07-29T22:08:58;2.23;;;1.03;;
70388;SDS011;58659;49.050;8.530;2022-07-29T22:11:24;1.30;;;0.90;;
70388;SDS011;58659;49.050;8.530;2022-07-29T22:18:41;1.70;;;1.07;;
70388;SDS011;58659;49.050;8.530;2022-07-29T22:21:10;2.37;;;1.60;;
70388;SDS011;58659;49.050;8.530;2022-07-29T22:23:36;2.80;;;1.20;;
70388;SDS011;58659;49.050;8.530;2022-07-29T22:26:01;2.07;;;1.30;;
